createdAt,value
2019-01-19T00:00:31.699Z,0
2019-01-19T00:01:41.510Z,0
2019-01-19T00:02:51.310Z,0
2019-01-19T00:04:01.391Z,0
2019-01-19T00:05:17.761Z,0
2019-01-19T00:06:27.863Z,0
2019-01-19T00:07:37.943Z,0
2019-01-19T00:08:48.073Z,0
2019-01-19T00:09:58.356Z,0
2019-01-19T00:11:08.565Z,0
2019-01-19T00:12:18.573Z,0
2019-01-19T00:13:28.632Z,0
2019-01-19T00:14:38.701Z,0
2019-01-19T00:15:48.772Z,0
2019-01-19T00:16:58.970Z,0
2019-01-19T00:18:09.050Z,0
2019-01-19T00:19:19.092Z,0
2019-01-19T00:20:28.905Z,0
2019-01-19T00:21:38.975Z,0
2019-01-19T00:22:49.028Z,0
2019-01-19T00:23:58.847Z,0
2019-01-19T00:25:08.918Z,0
2019-01-19T00:26:19.095Z,0
2019-01-19T00:27:28.908Z,0
2019-01-19T00:28:38.750Z,0
2019-01-19T00:29:48.847Z,0
2019-01-19T00:30:59.192Z,0
2019-01-19T00:32:09.273Z,0
2019-01-19T00:33:19.349Z,0
2019-01-19T00:34:36.435Z,0
2019-01-19T00:35:46.549Z,0
2019-01-19T00:36:56.628Z,0
2019-01-19T00:38:06.700Z,0
2019-01-19T00:39:16.773Z,0
2019-01-19T00:40:26.903Z,0
2019-01-19T00:41:37.391Z,0
2019-01-19T00:42:47.479Z,0
2019-01-19T00:43:57.275Z,0
2019-01-19T00:45:07.389Z,0
2019-01-19T00:46:17.254Z,0
2019-01-19T00:47:27.304Z,0
2019-01-19T00:48:37.357Z,0
2019-01-19T00:49:47.421Z,0
2019-01-19T00:50:57.938Z,0
2019-01-19T00:52:08.300Z,0
2019-01-19T00:53:18.343Z,0
2019-01-19T00:54:28.403Z,0
2019-01-19T00:55:38.214Z,0
2019-01-19T00:56:48.056Z,0
2019-01-19T00:57:58.127Z,0
2019-01-19T00:59:11.202Z,0
2019-01-19T01:00:21.520Z,0
2019-01-19T01:01:31.590Z,0
2019-01-19T01:02:41.653Z,0
2019-01-19T01:03:51.731Z,0
2019-01-19T01:05:02.091Z,0
2019-01-19T01:06:12.147Z,0
2019-01-19T01:07:22.207Z,0
2019-01-19T01:08:32.331Z,0
2019-01-19T01:09:42.198Z,0
2019-01-19T01:10:52.275Z,0
2019-01-19T01:12:02.344Z,0
2019-01-19T01:13:12.406Z,0
2019-01-19T01:14:22.704Z,0
2019-01-19T01:15:32.776Z,0
2019-01-19T01:16:42.843Z,0
2019-01-19T01:17:52.901Z,0
2019-01-19T01:19:02.954Z,0
2019-01-19T01:20:13.258Z,0
2019-01-19T01:21:23.423Z,0
2019-01-19T01:22:33.483Z,0
2019-01-19T01:23:43.532Z,0
2019-01-19T01:24:53.575Z,0
2019-01-19T01:26:03.365Z,0
2019-01-19T01:27:13.422Z,0
2019-01-19T01:28:23.516Z,0
2019-01-19T01:29:33.575Z,0
2019-01-19T01:30:43.686Z,0
2019-01-19T01:31:53.751Z,0
2019-01-19T01:33:03.899Z,0
2019-01-19T01:34:13.973Z,0
2019-01-19T01:35:24.042Z,0
2019-01-19T01:36:40.443Z,0
2019-01-19T01:37:50.684Z,0
2019-01-19T01:39:01.499Z,0
2019-01-19T01:40:11.577Z,0
2019-01-19T01:41:21.408Z,0
2019-01-19T01:42:31.454Z,0
2019-01-19T01:43:41.506Z,0
2019-01-19T01:44:51.794Z,0
2019-01-19T01:46:02.749Z,0
2019-01-19T01:47:12.819Z,0
2019-01-19T01:48:22.629Z,0
2019-01-19T01:49:32.731Z,0
2019-01-19T01:50:42.780Z,0
2019-01-19T01:51:52.842Z,0
2019-01-19T01:53:02.955Z,0
2019-01-19T01:54:13.009Z,0
2019-01-19T01:55:22.818Z,0
2019-01-19T01:56:32.919Z,0
2019-01-19T01:57:43.019Z,0
2019-01-19T01:58:53.068Z,0
2019-01-19T02:00:05.655Z,0
2019-01-19T02:01:15.950Z,0
2019-01-19T02:02:26.029Z,0
2019-01-19T02:03:36.331Z,0
2019-01-19T02:04:46.418Z,0
2019-01-19T02:05:56.511Z,0
2019-01-19T02:07:06.589Z,0
2019-01-19T02:08:16.386Z,0
2019-01-19T02:09:26.439Z,0
2019-01-19T02:10:36.831Z,0
2019-01-19T02:11:46.893Z,0
2019-01-19T02:12:56.968Z,0
2019-01-19T02:14:07.375Z,0
2019-01-19T02:15:17.454Z,0
2019-01-19T02:16:27.517Z,0
2019-01-19T02:17:37.578Z,0
2019-01-19T02:18:47.652Z,0
2019-01-19T02:19:58.041Z,0
2019-01-19T02:21:08.746Z,0
2019-01-19T02:22:18.567Z,0
2019-01-19T02:23:28.616Z,0
2019-01-19T02:24:38.667Z,0
2019-01-19T02:25:48.774Z,0
2019-01-19T02:26:58.600Z,0
2019-01-19T02:28:08.884Z,0
2019-01-19T02:29:18.952Z,0
2019-01-19T02:30:29.176Z,0
2019-01-19T02:31:39.523Z,0
2019-01-19T02:32:49.328Z,0
2019-01-19T02:33:59.434Z,0
2019-01-19T02:35:09.397Z,0
2019-01-19T02:36:20.118Z,0
2019-01-19T02:37:30.359Z,0
2019-01-19T02:38:40.548Z,0
2019-01-19T02:39:50.599Z,0
2019-01-19T02:41:00.679Z,0
2019-01-19T02:42:10.793Z,0
2019-01-19T02:43:21.098Z,0
2019-01-19T02:44:31.166Z,0
2019-01-19T02:45:41.257Z,0
2019-01-19T02:46:51.308Z,0
2019-01-19T02:48:01.953Z,0
2019-01-19T02:49:12.132Z,0
2019-01-19T02:50:22.179Z,0
2019-01-19T02:51:32.270Z,0
2019-01-19T02:52:42.329Z,0
2019-01-19T02:53:52.412Z,0
2019-01-19T02:55:02.622Z,0
2019-01-19T02:56:14.502Z,0
2019-01-19T02:57:24.657Z,0
2019-01-19T02:58:34.809Z,0
2019-01-19T02:59:44.857Z,0
2019-01-19T03:00:54.944Z,0
2019-01-19T03:02:06.263Z,0
2019-01-19T03:03:16.326Z,0
2019-01-19T03:35:05.760Z,0
2019-01-19T03:36:15.812Z,0
2019-01-19T03:37:25.879Z,0
2019-01-19T03:38:35.956Z,0
2019-01-19T03:39:46.294Z,0
2019-01-19T03:40:56.668Z,0
2019-01-19T03:42:06.721Z,0
2019-01-19T03:43:16.786Z,0
2019-01-19T03:44:26.848Z,0
2019-01-19T03:45:36.914Z,0
2019-01-19T03:46:46.978Z,0
2019-01-19T03:47:57.025Z,0
2019-01-19T03:49:06.830Z,0
2019-01-19T03:50:16.872Z,0
2019-01-19T03:51:26.975Z,0
2019-01-19T03:52:36.774Z,0
2019-01-19T03:53:47.036Z,0
2019-01-19T03:54:57.200Z,0
2019-01-19T03:56:06.746Z,0
2019-01-19T03:57:16.803Z,0
2019-01-19T03:58:26.906Z,0
2019-01-19T03:59:37.020Z,0
2019-01-19T04:00:47.232Z,0
2019-01-19T04:01:57.299Z,0
2019-01-19T04:03:06.917Z,0
2019-01-19T04:04:16.858Z,0
2019-01-19T04:05:26.909Z,0
2019-01-19T04:06:36.987Z,0
2019-01-19T04:07:46.838Z,0
2019-01-19T04:08:56.693Z,0
2019-01-19T04:10:06.738Z,0
2019-01-19T04:11:16.865Z,0
2019-01-19T04:12:26.935Z,0
2019-01-19T04:13:36.998Z,0
2019-01-19T04:14:47.066Z,0
2019-01-19T04:15:57.222Z,0
2019-01-19T04:17:07.273Z,0
2019-01-19T04:18:17.333Z,0
2019-01-19T04:19:27.147Z,0
2019-01-19T04:20:37.228Z,0
2019-01-19T04:21:47.053Z,0
2019-01-19T04:22:56.610Z,0
2019-01-19T04:24:06.669Z,0
2019-01-19T04:25:16.702Z,0
2019-01-19T04:26:26.758Z,0
2019-01-19T04:27:36.822Z,0
2019-01-19T04:28:46.896Z,0
2019-01-19T04:29:56.955Z,0
2019-01-19T04:31:07.196Z,0
2019-01-19T04:32:17.000Z,0
2019-01-19T04:33:26.957Z,0
2019-01-19T04:34:36.767Z,0
2019-01-19T04:35:46.846Z,0
2019-01-19T04:36:56.914Z,0
2019-01-19T04:38:07.030Z,0
2019-01-19T04:39:17.093Z,0
2019-01-19T04:40:27.154Z,0
2019-01-19T04:41:37.425Z,0
2019-01-19T04:42:47.514Z,0
2019-01-19T04:43:57.570Z,0
2019-01-19T04:45:07.780Z,0
2019-01-19T04:46:17.839Z,0
2019-01-19T04:47:27.900Z,0
2019-01-19T04:48:37.734Z,0
2019-01-19T04:49:47.541Z,0
2019-01-19T04:50:57.597Z,0
2019-01-19T04:52:08.972Z,0
2019-01-19T04:53:18.775Z,0
2019-01-19T04:54:28.848Z,0
2019-01-19T04:55:38.903Z,0
2019-01-19T04:56:48.962Z,0
2019-01-19T04:57:59.005Z,0
2019-01-19T04:59:09.060Z,0
2019-01-19T05:00:20.491Z,0
2019-01-19T05:01:30.802Z,0
2019-01-19T05:02:40.874Z,0
2019-01-19T05:03:50.687Z,0
2019-01-19T05:05:00.756Z,0
2019-01-19T05:06:20.400Z,0
2019-01-19T05:07:38.309Z,0
2019-01-19T05:08:48.403Z,0
2019-01-19T05:09:58.202Z,0
2019-01-19T05:11:10.109Z,0
2019-01-19T05:12:19.902Z,0
2019-01-19T05:13:29.751Z,0
2019-01-19T05:14:39.834Z,0
2019-01-19T05:15:49.683Z,0
2019-01-19T05:16:59.489Z,0
2019-01-19T05:18:10.437Z,0
2019-01-19T05:19:19.519Z,0
2019-01-19T05:20:29.332Z,0
2019-01-19T05:21:39.376Z,0
2019-01-19T05:22:49.434Z,0
2019-01-19T05:23:59.496Z,0
2019-01-19T05:25:09.623Z,0
2019-01-19T05:26:19.686Z,0
2019-01-19T05:27:29.985Z,0
2019-01-19T05:28:40.054Z,0
2019-01-19T05:29:50.114Z,0
2019-01-19T05:31:01.909Z,0
2019-01-19T05:32:11.726Z,0
2019-01-19T05:33:21.811Z,0
2019-01-19T05:34:31.852Z,0
2019-01-19T05:35:41.916Z,0
2019-01-19T05:36:52.243Z,0
2019-01-19T05:38:04.454Z,0
2019-01-19T05:39:14.762Z,0
2019-01-19T05:40:24.591Z,0
2019-01-19T05:41:34.454Z,0
2019-01-19T05:42:44.301Z,0
2019-01-19T05:43:54.341Z,0
2019-01-19T05:45:04.401Z,0
2019-01-19T05:46:21.305Z,0
2019-01-19T05:47:31.600Z,0
2019-01-19T05:48:42.014Z,0
2019-01-19T05:49:52.091Z,0
2019-01-19T05:51:01.927Z,0
2019-01-19T05:52:11.733Z,0
2019-01-19T05:53:21.573Z,0
2019-01-19T05:54:31.677Z,0
2019-01-19T05:55:41.670Z,0
2019-01-19T05:56:51.736Z,0
2019-01-19T05:58:02.638Z,0
2019-01-19T05:59:12.699Z,0
2019-01-19T06:00:23.325Z,0
2019-01-19T06:01:33.486Z,0
2019-01-19T06:02:43.327Z,0
2019-01-19T06:03:53.415Z,0
2019-01-19T06:05:04.870Z,4
2019-01-19T06:06:14.937Z,4
2019-01-19T06:07:24.790Z,0
2019-01-19T06:08:34.890Z,0
2019-01-19T06:09:45.155Z,4
2019-01-19T06:10:54.978Z,0
2019-01-19T06:12:04.768Z,4
2019-01-19T06:13:14.815Z,4
2019-01-19T06:14:24.621Z,4
2019-01-19T06:15:34.674Z,4
2019-01-19T06:16:44.781Z,4
2019-01-19T06:17:54.987Z,8
2019-01-19T06:19:05.210Z,8
2019-01-19T06:20:15.019Z,12
2019-01-19T06:21:25.987Z,16
2019-01-19T06:22:36.048Z,16
2019-01-19T06:23:46.245Z,20
2019-01-19T06:24:56.323Z,24
2019-01-19T06:26:06.385Z,28
2019-01-19T06:27:16.436Z,32
2019-01-19T06:28:26.574Z,36
2019-01-19T06:29:37.187Z,44
2019-01-19T06:30:47.561Z,48
2019-01-19T06:31:57.860Z,56
2019-01-19T06:33:09.989Z,64
2019-01-19T06:34:20.061Z,72
2019-01-19T06:35:30.137Z,84
2019-01-19T06:36:40.209Z,88
2019-01-19T06:37:50.291Z,104
2019-01-19T06:39:01.059Z,112
2019-01-19T06:40:11.129Z,124
2019-01-19T06:41:20.953Z,132
2019-01-19T06:42:31.019Z,144
2019-01-19T06:43:40.906Z,156
2019-01-19T06:44:51.569Z,168
2019-01-19T06:46:01.805Z,184
2019-01-19T06:47:11.676Z,196
2019-01-19T06:48:21.716Z,216
2019-01-19T06:49:31.516Z,240
2019-01-19T06:50:41.917Z,256
2019-01-19T06:51:51.760Z,284
2019-01-19T06:53:02.138Z,312
2019-01-19T06:54:12.203Z,340
2019-01-19T06:55:22.271Z,360
2019-01-19T06:56:32.340Z,388
2019-01-19T06:57:41.893Z,416
2019-01-19T06:58:52.022Z,428
2019-01-19T07:00:02.237Z,436
2019-01-19T07:01:12.245Z,460
2019-01-19T07:02:22.324Z,480
2019-01-19T07:03:32.493Z,520
2019-01-19T07:04:42.553Z,552
2019-01-19T07:05:52.614Z,564
2019-01-19T07:07:09.540Z,620
2019-01-19T07:08:20.368Z,700
2019-01-19T07:09:30.497Z,780
2019-01-19T07:10:40.609Z,812
2019-01-19T07:11:50.698Z,824
2019-01-19T07:13:01.460Z,832
2019-01-19T07:14:11.273Z,812
2019-01-19T07:15:21.081Z,828
2019-01-19T07:16:31.231Z,844
2019-01-19T07:17:41.314Z,856
2019-01-19T07:18:51.394Z,864
2019-01-19T07:20:01.646Z,884
2019-01-19T07:21:11.685Z,900
2019-01-19T07:22:21.840Z,924
2019-01-19T07:23:31.911Z,944
2019-01-19T07:24:41.707Z,960
2019-01-19T07:25:52.820Z,976
2019-01-19T07:27:03.218Z,992
2019-01-19T07:28:13.410Z,1012
2019-01-19T07:29:23.212Z,1032
2019-01-19T07:30:33.314Z,1052
2019-01-19T07:31:43.377Z,1072
2019-01-19T07:32:53.474Z,1092
2019-01-19T07:34:04.112Z,1116
2019-01-19T07:35:13.925Z,1136
2019-01-19T07:36:23.982Z,1160
2019-01-19T07:37:34.052Z,1184
2019-01-19T07:38:44.135Z,1204
2019-01-19T07:39:54.198Z,1232
2019-01-19T07:41:04.009Z,1260
2019-01-19T07:42:13.820Z,1304
2019-01-19T07:43:23.867Z,1380
2019-01-19T07:44:33.947Z,1460
2019-01-19T07:45:44.048Z,1492
2019-01-19T07:47:01.567Z,1512
2019-01-19T07:48:11.617Z,1564
2019-01-19T07:49:21.676Z,1580
2019-01-19T07:50:31.801Z,1628
2019-01-19T07:51:42.092Z,1680
2019-01-19T07:52:52.155Z,1712
2019-01-19T07:54:01.988Z,1736
2019-01-19T07:55:12.050Z,1788
2019-01-19T07:56:22.156Z,1832
2019-01-19T07:57:38.886Z,1904
2019-01-19T07:58:48.939Z,1964
2019-01-19T07:59:59.014Z,1948
2019-01-19T08:01:09.271Z,1920
2019-01-19T08:02:19.471Z,1924
2019-01-19T08:03:29.276Z,1980
2019-01-19T08:04:39.567Z,2000
2019-01-19T08:05:49.624Z,2064
2019-01-19T08:06:59.684Z,2064
2019-01-19T08:08:10.904Z,2052
2019-01-19T08:09:21.000Z,2024
2019-01-19T08:10:31.044Z,2000
2019-01-19T08:11:41.109Z,1980
2019-01-19T08:12:51.170Z,1968
2019-01-19T08:14:01.072Z,1956
2019-01-19T08:15:11.122Z,1964
2019-01-19T08:16:21.187Z,1964
2019-01-19T08:17:31.444Z,1964
2019-01-19T08:18:41.503Z,1964
2019-01-19T08:19:51.569Z,2016
2019-01-19T08:21:01.688Z,2040
2019-01-19T08:22:11.795Z,2124
2019-01-19T08:23:21.958Z,2176
2019-01-19T08:24:32.053Z,2220
2019-01-19T08:25:42.084Z,2292
2019-01-19T08:26:52.153Z,2332
2019-01-19T08:28:03.789Z,2364
2019-01-19T08:29:13.863Z,2492
2019-01-19T08:30:23.976Z,2504
2019-01-19T08:31:34.107Z,2604
2019-01-19T08:32:44.168Z,2728
2019-01-19T08:33:55.678Z,2772
2019-01-19T08:35:05.940Z,2792
2019-01-19T08:36:16.007Z,2748
2019-01-19T08:37:32.690Z,2692
2019-01-19T08:38:42.757Z,2812
2019-01-19T08:39:53.124Z,2772
2019-01-19T08:41:03.548Z,2784
2019-01-19T08:42:13.672Z,2732
2019-01-19T08:43:23.765Z,2764
2019-01-19T08:44:33.824Z,2992
2019-01-19T08:45:43.631Z,3236
2019-01-19T08:46:53.438Z,3840
2019-01-19T08:48:03.541Z,3840
2019-01-19T08:49:13.623Z,3792
2019-01-19T08:50:23.993Z,3840
2019-01-19T08:51:34.068Z,3520
2019-01-19T08:52:44.159Z,3164
2019-01-19T08:53:54.231Z,3304
2019-01-19T08:55:05.427Z,3472
2019-01-19T08:56:15.519Z,3684
2019-01-19T08:57:25.366Z,3720
2019-01-19T08:58:35.197Z,3672
2019-01-19T08:59:45.357Z,3464
2019-01-19T09:00:55.272Z,3516
2019-01-19T09:02:05.462Z,3856
2019-01-19T09:03:15.259Z,4124
2019-01-19T09:04:25.276Z,3736
2019-01-19T09:05:35.374Z,3340
2019-01-19T09:06:45.481Z,3292
2019-01-19T09:07:55.567Z,3072
2019-01-19T09:09:05.957Z,3108
2019-01-19T09:10:16.045Z,3164
2019-01-19T09:11:26.250Z,3300
2019-01-19T09:12:36.419Z,3220
2019-01-19T09:13:46.570Z,3172
2019-01-19T09:14:56.650Z,3260
2019-01-19T09:16:06.714Z,3508
2019-01-19T09:17:16.532Z,3464
2019-01-19T09:18:26.786Z,3496
2019-01-19T09:19:37.398Z,3244
2019-01-19T09:20:47.485Z,3176
2019-01-19T09:21:57.536Z,3128
2019-01-19T09:23:07.372Z,3084
2019-01-19T09:24:17.456Z,3212
2019-01-19T09:25:27.584Z,3548
2019-01-19T09:26:37.702Z,3608
2019-01-19T09:27:47.834Z,3644
2019-01-19T09:28:58.021Z,3664
2019-01-19T09:30:09.449Z,3764
2019-01-19T09:31:19.578Z,4028
2019-01-19T09:32:29.423Z,3868
2019-01-19T09:33:39.486Z,4176
2019-01-19T09:34:49.564Z,4120
2019-01-19T09:35:59.639Z,4112
2019-01-19T09:37:09.572Z,3912
2019-01-19T09:38:19.655Z,3744
2019-01-19T09:39:29.936Z,3760
2019-01-19T09:40:40.012Z,3784
2019-01-19T09:41:50.093Z,3728
2019-01-19T09:43:14.566Z,3648
2019-01-19T09:44:26.046Z,3616
2019-01-19T09:45:37.511Z,3576
2019-01-19T09:46:47.567Z,3536
2019-01-19T09:47:57.698Z,3560
2019-01-19T09:49:07.835Z,3576
2019-01-19T09:50:17.898Z,3576
2019-01-19T09:51:27.701Z,3600
2019-01-19T09:52:37.531Z,3668
2019-01-19T09:53:47.370Z,3764
2019-01-19T09:54:57.429Z,3780
2019-01-19T09:56:07.585Z,3872
2019-01-19T09:57:17.452Z,3828
2019-01-19T09:58:27.264Z,3856
2019-01-19T09:59:37.342Z,3860
2019-01-19T10:00:53.150Z,3840
2019-01-19T10:02:03.264Z,3824
2019-01-19T10:03:13.962Z,3720
2019-01-19T10:04:24.127Z,3668
2019-01-19T10:05:34.180Z,3676
2019-01-19T10:06:44.458Z,3744
2019-01-19T10:08:08.635Z,3720
2019-01-19T10:09:18.727Z,3708
2019-01-19T10:10:28.863Z,3704
2019-01-19T10:11:38.743Z,3688
2019-01-19T10:12:48.804Z,3712
2019-01-19T10:13:58.910Z,3836
2019-01-19T10:15:08.747Z,3996
2019-01-19T10:16:18.897Z,4056
2019-01-19T10:17:28.960Z,4080
2019-01-19T10:18:39.032Z,4092
2019-01-19T10:19:49.419Z,4116
2019-01-19T10:21:01.005Z,4084
2019-01-19T10:22:11.108Z,4144
2019-01-19T10:23:21.203Z,4164
2019-01-19T10:24:31.369Z,4344
2019-01-19T10:25:41.550Z,4428
2019-01-19T10:26:51.622Z,4560
2019-01-19T10:28:02.481Z,4828
2019-01-19T10:29:12.374Z,4828
2019-01-19T10:30:22.495Z,4788
2019-01-19T10:31:32.777Z,4688
2019-01-19T10:32:42.896Z,4548
2019-01-19T10:33:52.991Z,4712
2019-01-19T10:35:03.108Z,5056
2019-01-19T10:36:13.296Z,5220
2019-01-19T10:37:23.380Z,5328
2019-01-19T10:38:33.459Z,4520
2019-01-19T10:39:43.539Z,5176
2019-01-19T10:40:53.602Z,5172
2019-01-19T10:42:03.529Z,4596
2019-01-19T10:43:13.602Z,4520
2019-01-19T10:44:23.396Z,4344
2019-01-19T10:45:33.228Z,4624
2019-01-19T10:46:43.307Z,3960
2019-01-19T10:47:54.967Z,3780
2019-01-19T10:49:04.871Z,3732
2019-01-19T10:50:14.965Z,3724
2019-01-19T10:51:24.784Z,3688
2019-01-19T10:52:34.859Z,3580
2019-01-19T10:53:44.929Z,3560
2019-01-19T10:54:54.767Z,3520
2019-01-19T10:56:04.933Z,3464
2019-01-19T10:57:14.760Z,3464
2019-01-19T10:58:24.868Z,3508
2019-01-19T10:59:34.672Z,3508
2019-01-19T11:00:44.801Z,3504
2019-01-19T11:01:54.885Z,3496
2019-01-19T11:03:04.698Z,3428
2019-01-19T11:04:14.988Z,3400
2019-01-19T11:05:25.217Z,3392
2019-01-19T11:06:35.280Z,3420
2019-01-19T11:07:45.351Z,3464
2019-01-19T11:08:55.407Z,3468
2019-01-19T11:10:07.977Z,3480
2019-01-19T11:11:18.138Z,3484
2019-01-19T11:12:27.974Z,3512
2019-01-19T11:13:38.029Z,3516
2019-01-19T11:14:48.150Z,3508
2019-01-19T11:15:58.217Z,3492
2019-01-19T11:17:08.054Z,3464
2019-01-19T11:18:18.042Z,3444
2019-01-19T11:19:28.127Z,3408
2019-01-19T11:20:38.035Z,3368
2019-01-19T11:21:48.350Z,3328
2019-01-19T11:22:58.566Z,3288
2019-01-19T11:24:09.025Z,3228
2019-01-19T11:25:18.853Z,3184
2019-01-19T11:26:28.659Z,3136
2019-01-19T11:27:38.829Z,3096
2019-01-19T11:28:49.870Z,3064
2019-01-19T11:30:00.093Z,3044
2019-01-19T11:31:10.501Z,3044
2019-01-19T11:32:20.594Z,3036
2019-01-19T11:33:30.671Z,3016
2019-01-19T11:34:40.786Z,2980
2019-01-19T11:35:50.634Z,2936
2019-01-19T11:37:00.469Z,2892
2019-01-19T11:38:22.592Z,2840
2019-01-19T11:39:32.718Z,2800
2019-01-19T11:40:42.830Z,2776
2019-01-19T11:41:52.686Z,2752
2019-01-19T11:43:05.655Z,2736
2019-01-19T11:44:15.719Z,2736
2019-01-19T11:45:25.811Z,2748
2019-01-19T11:46:35.926Z,2772
2019-01-19T11:47:46.024Z,2804
2019-01-19T11:48:56.122Z,2844
2019-01-19T11:50:06.229Z,2876
2019-01-19T11:51:16.390Z,2892
2019-01-19T11:52:26.447Z,2892
2019-01-19T11:53:36.320Z,2876
2019-01-19T11:54:46.435Z,2848
2019-01-19T11:55:56.754Z,2816
2019-01-19T11:57:07.927Z,2772
2019-01-19T11:58:17.992Z,2736
2019-01-19T11:59:27.847Z,2700
2019-01-19T12:00:37.914Z,2680
2019-01-19T12:01:47.741Z,2664
2019-01-19T12:02:57.852Z,2656
2019-01-19T12:04:09.012Z,2640
2019-01-19T12:05:19.094Z,2616
2019-01-19T12:06:29.232Z,2584
2019-01-19T12:07:39.323Z,2548
2019-01-19T12:08:49.494Z,2508
2019-01-19T12:09:59.638Z,2480
2019-01-19T12:11:09.441Z,2436
2019-01-19T12:12:19.527Z,2400
2019-01-19T12:13:29.590Z,2372
2019-01-19T12:14:39.659Z,2344
2019-01-19T12:15:49.752Z,2320
2019-01-19T12:16:59.847Z,2296
2019-01-19T12:18:10.946Z,2264
2019-01-19T12:19:21.242Z,2228
2019-01-19T12:20:31.309Z,2192
2019-01-19T12:21:41.115Z,2160
2019-01-19T12:22:51.187Z,2136
2019-01-19T12:24:00.798Z,2116
2019-01-19T12:25:11.164Z,2104
2019-01-19T12:26:21.227Z,2088
2019-01-19T12:27:31.368Z,2084
2019-01-19T12:28:41.160Z,2080
2019-01-19T12:29:50.719Z,2068
2019-01-19T12:31:00.533Z,2056
2019-01-19T12:32:10.885Z,2040
2019-01-19T12:33:20.973Z,2028
2019-01-19T12:34:31.071Z,2008
2019-01-19T12:35:41.191Z,2000
2019-01-19T12:36:51.254Z,1988
2019-01-19T12:38:01.324Z,1984
2019-01-19T12:39:11.439Z,1972
2019-01-19T12:40:21.536Z,1964
2019-01-19T12:41:31.574Z,1956
2019-01-19T12:42:41.650Z,1944
2019-01-19T12:43:51.742Z,1932
2019-01-19T12:45:02.221Z,1920
2019-01-19T12:46:12.465Z,1904
2019-01-19T12:47:22.552Z,1884
2019-01-19T12:48:32.726Z,1860
2019-01-19T12:49:42.792Z,1836
2019-01-19T12:50:53.305Z,1796
2019-01-19T12:52:03.358Z,1756
2019-01-19T12:53:13.423Z,1736
2019-01-19T12:54:23.759Z,1732
2019-01-19T12:55:33.613Z,1732
2019-01-19T12:56:43.682Z,1744
2019-01-19T12:57:53.819Z,1760
2019-01-19T12:59:04.707Z,1776
2019-01-19T13:00:15.239Z,1784
2019-01-19T13:01:25.347Z,1792
2019-01-19T13:02:35.230Z,1796
2019-01-19T13:03:45.306Z,1808
2019-01-19T13:04:55.348Z,1820
2019-01-19T13:06:05.904Z,1824
2019-01-19T13:07:15.967Z,1820
2019-01-19T13:08:26.057Z,1812
2019-01-19T13:09:42.288Z,1808
2019-01-19T13:10:52.388Z,1792
2019-01-19T13:12:02.216Z,1780
2019-01-19T13:13:12.551Z,1772
2019-01-19T13:14:22.417Z,1768
2019-01-19T13:15:32.513Z,1768
2019-01-19T13:16:42.335Z,1764
2019-01-19T13:17:52.237Z,1756
2019-01-19T13:19:02.028Z,1760
2019-01-19T13:20:12.145Z,1756
2019-01-19T13:21:22.210Z,1744
2019-01-19T13:22:32.027Z,1724
2019-01-19T13:23:47.673Z,1704
2019-01-19T13:24:57.766Z,1680
2019-01-19T13:26:08.062Z,1656
2019-01-19T13:27:18.196Z,1620
2019-01-19T13:28:28.270Z,1592
2019-01-19T13:29:38.333Z,1568
2019-01-19T13:30:48.541Z,1540
2019-01-19T13:31:58.594Z,1520
2019-01-19T13:33:10.491Z,1500
2019-01-19T13:34:20.572Z,1492
2019-01-19T13:35:30.657Z,1476
2019-01-19T13:36:40.523Z,1456
2019-01-19T13:37:50.615Z,1432
2019-01-19T13:39:00.774Z,1412
2019-01-19T13:40:10.838Z,1396
2019-01-19T13:41:20.746Z,1380
2019-01-19T13:42:30.796Z,1360
2019-01-19T13:43:40.864Z,1332
2019-01-19T13:44:50.642Z,1300
2019-01-19T13:46:00.711Z,1264
2019-01-19T13:47:10.529Z,1224
2019-01-19T13:48:20.623Z,1184
2019-01-19T13:49:30.428Z,1140
2019-01-19T13:50:40.306Z,1092
2019-01-19T13:51:50.358Z,1048
2019-01-19T13:53:03.782Z,1004
2019-01-19T13:54:14.213Z,964
2019-01-19T13:55:24.562Z,928
2019-01-19T13:56:34.819Z,892
2019-01-19T13:57:44.796Z,864
2019-01-19T13:58:54.555Z,836
2019-01-19T14:00:04.594Z,808
2019-01-19T14:01:14.706Z,788
2019-01-19T14:02:24.627Z,764
2019-01-19T14:03:34.676Z,740
2019-01-19T14:04:44.485Z,724
2019-01-19T14:05:54.640Z,704
2019-01-19T14:07:04.707Z,692
2019-01-19T14:08:14.779Z,680
2019-01-19T14:09:24.827Z,676
2019-01-19T14:10:34.893Z,664
2019-01-19T14:11:45.041Z,664
2019-01-19T14:12:55.118Z,656
2019-01-19T14:14:05.500Z,652
2019-01-19T14:15:15.569Z,644
2019-01-19T14:16:25.646Z,628
2019-01-19T14:17:35.593Z,612
2019-01-19T14:18:45.405Z,588
2019-01-19T14:19:55.512Z,568
2019-01-19T14:21:05.576Z,548
2019-01-19T14:22:15.386Z,528
2019-01-19T14:23:25.443Z,508
2019-01-19T14:24:35.593Z,488
2019-01-19T14:25:45.690Z,472
2019-01-19T14:26:55.758Z,452
2019-01-19T14:28:05.565Z,436
2019-01-19T14:29:15.708Z,428
2019-01-19T14:30:25.531Z,416
2019-01-19T14:31:35.610Z,408
2019-01-19T14:32:45.698Z,400
2019-01-19T14:33:55.770Z,396
2019-01-19T14:35:05.896Z,388
2019-01-19T14:36:16.203Z,384
2019-01-19T14:37:26.475Z,380
2019-01-19T14:38:36.475Z,376
2019-01-19T14:39:46.573Z,372
2019-01-19T14:40:56.670Z,368
2019-01-19T14:42:06.740Z,364
2019-01-19T14:43:16.824Z,356
2019-01-19T14:44:26.895Z,356
2019-01-19T14:45:36.988Z,348
2019-01-19T14:46:47.169Z,340
2019-01-19T14:47:57.252Z,332
2019-01-19T14:49:07.327Z,320
2019-01-19T14:50:17.391Z,308
2019-01-19T14:51:27.220Z,296
2019-01-19T14:52:37.441Z,280
2019-01-19T14:53:47.608Z,264
2019-01-19T14:54:57.768Z,252
2019-01-19T14:56:08.990Z,240
2019-01-19T14:57:18.959Z,228
2019-01-19T14:58:29.268Z,216
2019-01-19T14:59:39.051Z,208
2019-01-19T15:00:48.887Z,196
2019-01-19T15:01:58.699Z,188
2019-01-19T15:03:10.116Z,180
2019-01-19T15:04:20.189Z,172
2019-01-19T15:05:30.266Z,164
2019-01-19T15:06:40.328Z,152
2019-01-19T15:07:50.511Z,144
2019-01-19T15:09:06.346Z,136
2019-01-19T15:10:16.526Z,128
2019-01-19T15:11:26.347Z,124
2019-01-19T15:12:36.412Z,112
2019-01-19T15:13:46.220Z,108
2019-01-19T15:14:56.316Z,100
2019-01-19T15:16:06.425Z,92
2019-01-19T15:17:16.291Z,88
2019-01-19T15:18:26.364Z,84
2019-01-19T15:19:36.533Z,76
2019-01-19T15:20:46.625Z,72
2019-01-19T15:21:56.762Z,68
2019-01-19T15:23:06.860Z,60
2019-01-19T15:24:16.937Z,56
2019-01-19T15:25:26.508Z,52
2019-01-19T15:26:36.382Z,44
2019-01-19T15:27:46.693Z,44
2019-01-19T15:28:56.772Z,40
2019-01-19T15:30:06.852Z,36
2019-01-19T15:31:16.695Z,32
2019-01-19T15:32:26.775Z,32
2019-01-19T15:33:36.863Z,28
2019-01-19T15:34:46.941Z,24
2019-01-19T15:35:57.242Z,20
2019-01-19T15:37:07.624Z,16
2019-01-19T15:38:17.743Z,16
2019-01-19T15:39:27.559Z,12
2019-01-19T15:40:37.664Z,12
2019-01-19T15:41:47.741Z,8
2019-01-19T15:42:57.817Z,12
2019-01-19T15:44:07.960Z,8
2019-01-19T15:45:18.023Z,8
2019-01-19T15:46:28.099Z,4
2019-01-19T15:47:38.182Z,4
2019-01-19T15:48:48.317Z,4
2019-01-19T15:49:58.137Z,4
2019-01-19T15:51:08.300Z,0
2019-01-19T15:52:18.371Z,4
2019-01-19T15:53:28.438Z,4
2019-01-19T15:54:38.274Z,0
2019-01-19T15:55:48.356Z,0
2019-01-19T15:56:58.730Z,4
2019-01-19T15:58:10.665Z,4
2019-01-19T15:59:20.479Z,0
2019-01-19T16:00:30.302Z,0
2019-01-19T16:01:40.155Z,0
2019-01-19T16:02:50.298Z,0
2019-01-19T16:04:00.547Z,0
2019-01-19T16:05:10.357Z,0
2019-01-19T16:06:20.663Z,0
2019-01-19T16:07:30.475Z,0
2019-01-19T16:08:40.585Z,0
2019-01-19T16:09:50.897Z,0
2019-01-19T16:11:01.033Z,0
2019-01-19T16:12:11.100Z,0
2019-01-19T16:13:21.367Z,0
2019-01-19T16:14:31.169Z,0
2019-01-19T16:15:41.257Z,0
2019-01-19T16:16:51.319Z,0
2019-01-19T16:18:01.378Z,0
2019-01-19T16:19:11.444Z,0
2019-01-19T16:20:21.761Z,0
2019-01-19T16:21:31.846Z,0
2019-01-19T16:22:41.909Z,0
2019-01-19T16:23:52.016Z,0
2019-01-19T16:25:03.090Z,0
2019-01-19T16:26:12.916Z,0
2019-01-19T16:27:22.801Z,0
2019-01-19T16:28:32.868Z,0
2019-01-19T16:29:42.714Z,0
2019-01-19T16:30:52.508Z,0
2019-01-19T16:32:10.312Z,0
2019-01-19T16:33:20.399Z,0
2019-01-19T16:34:30.473Z,0
2019-01-19T16:35:40.541Z,0
2019-01-19T16:36:50.645Z,0
2019-01-19T16:38:03.114Z,0
2019-01-19T16:39:12.985Z,0
2019-01-19T16:40:23.096Z,0
2019-01-19T16:41:33.186Z,0
2019-01-19T16:42:43.981Z,0
2019-01-19T16:43:54.166Z,0
2019-01-19T16:45:04.732Z,0
2019-01-19T16:46:14.604Z,0
2019-01-19T16:47:24.674Z,0
2019-01-19T16:48:34.745Z,0
2019-01-19T16:49:44.958Z,0
2019-01-19T16:50:55.021Z,0
2019-01-19T16:52:05.244Z,0
2019-01-19T16:53:15.342Z,0
2019-01-19T16:54:25.429Z,0
2019-01-19T16:55:35.631Z,0